sensor_id;sensor_type;location;lat;lon;timestamp;P1;durP1;ratioP1;P2;durP2;ratioP2
17650;SDS011;26663;59.302;18.082;2022-12-18T00:02:22;11.37;;;8.57;;
17650;SDS011;26663;59.302;18.082;2022-12-18T00:05:29;13.83;;;8.20;;
17650;SDS011;26663;59.302;18.082;2022-12-18T00:08:34;14.43;;;8.20;;
17650;SDS011;26663;59.302;18.082;2022-12-18T00:11:39;13.37;;;7.97;;
17650;SDS011;26663;59.302;18.082;2022-12-18T00:14:44;13.63;;;8.53;;
17650;SDS011;26663;59.302;18.082;2022-12-18T00:17:49;14.07;;;8.13;;
17650;SDS011;26663;59.302;18.082;2022-12-18T00:20:57;13.37;;;8.13;;
17650;SDS011;26663;59.302;18.082;2022-12-18T00:24:03;14.03;;;8.30;;
17650;SDS011;26663;59.302;18.082;2022-12-18T00:27:09;17.10;;;8.13;;
17650;SDS011;26663;59.302;18.082;2022-12-18T00:30:15;12.20;;;8.10;;
17650;SDS011;26663;59.302;18.082;2022-12-18T00:33:20;12.17;;;7.77;;
17650;SDS011;26663;59.302;18.082;2022-12-18T00:36:27;12.27;;;7.90;;
17650;SDS011;26663;59.302;18.082;2022-12-18T00:39:33;14.77;;;8.13;;
17650;SDS011;26663;59.302;18.082;2022-12-18T00:42:38;12.90;;;8.07;;
17650;SDS011;26663;59.302;18.082;2022-12-18T00:46:03;12.50;;;7.80;;
17650;SDS011;26663;59.302;18.082;2022-12-18T00:49:09;15.93;;;7.93;;
17650;SDS011;26663;59.302;18.082;2022-12-18T00:52:17;12.53;;;7.93;;
17650;SDS011;26663;59.302;18.082;2022-12-18T00:55:23;11.70;;;7.77;;
17650;SDS011;26663;59.302;18.082;2022-12-18T00:58:28;14.97;;;8.37;;
17650;SDS011;26663;59.302;18.082;2022-12-18T01:01:34;12.33;;;7.73;;
17650;SDS011;26663;59.302;18.082;2022-12-18T01:04:41;10.73;;;7.73;;
17650;SDS011;26663;59.302;18.082;2022-12-18T01:07:47;10.73;;;7.93;;
17650;SDS011;26663;59.302;18.082;2022-12-18T01:10:53;11.97;;;8.07;;
17650;SDS011;26663;59.302;18.082;2022-12-18T01:14:01;12.17;;;7.63;;
17650;SDS011;26663;59.302;18.082;2022-12-18T01:17:06;12.17;;;7.77;;
17650;SDS011;26663;59.302;18.082;2022-12-18T01:20:12;10.43;;;7.53;;
17650;SDS011;26663;59.302;18.082;2022-12-18T01:23:18;11.33;;;7.33;;
17650;SDS011;26663;59.302;18.082;2022-12-18T01:26:26;9.00;;;6.17;;
17650;SDS011;26663;59.302;18.082;2022-12-18T01:29:32;10.80;;;7.53;;
17650;SDS011;26663;59.302;18.082;2022-12-18T01:32:38;12.27;;;7.77;;
17650;SDS011;26663;59.302;18.082;2022-12-18T01:35:44;11.47;;;7.43;;
17650;SDS011;26663;59.302;18.082;2022-12-18T01:38:51;11.23;;;8.20;;
17650;SDS011;26663;59.302;18.082;2022-12-18T01:41:56;10.53;;;7.40;;
17650;SDS011;26663;59.302;18.082;2022-12-18T01:45:24;12.67;;;8.43;;
17650;SDS011;26663;59.302;18.082;2022-12-18T01:48:31;15.07;;;7.70;;
17650;SDS011;26663;59.302;18.082;2022-12-18T01:51:36;12.23;;;7.47;;
17650;SDS011;26663;59.302;18.082;2022-12-18T01:54:43;12.90;;;8.13;;
17650;SDS011;26663;59.302;18.082;2022-12-18T01:57:49;14.57;;;8.87;;
17650;SDS011;26663;59.302;18.082;2022-12-18T02:00:56;12.43;;;8.07;;
17650;SDS011;26663;59.302;18.082;2022-12-18T02:04:14;13.27;;;8.07;;
17650;SDS011;26663;59.302;18.082;2022-12-18T02:07:26;12.10;;;7.63;;
17650;SDS011;26663;59.302;18.082;2022-12-18T02:10:43;14.33;;;8.10;;
17650;SDS011;26663;59.302;18.082;2022-12-18T02:14:00;13.13;;;8.33;;
17650;SDS011;26663;59.302;18.082;2022-12-18T02:17:10;16.73;;;8.87;;
17650;SDS011;26663;59.302;18.082;2022-12-18T02:20:19;15.60;;;8.40;;
17650;SDS011;26663;59.302;18.082;2022-12-18T02:23:32;11.03;;;8.23;;
17650;SDS011;26663;59.302;18.082;2022-12-18T02:26:51;13.87;;;7.93;;
17650;SDS011;26663;59.302;18.082;2022-12-18T02:30:02;10.40;;;7.90;;
17650;SDS011;26663;59.302;18.082;2022-12-18T02:33:11;12.17;;;7.80;;
17650;SDS011;26663;59.302;18.082;2022-12-18T02:36:18;10.43;;;7.70;;
17650;SDS011;26663;59.302;18.082;2022-12-18T02:39:24;10.50;;;7.63;;
17650;SDS011;26663;59.302;18.082;2022-12-18T02:42:38;10.23;;;7.47;;
17650;SDS011;26663;59.302;18.082;2022-12-18T02:45:46;13.33;;;8.47;;
17650;SDS011;26663;59.302;18.082;2022-12-18T02:48:54;12.40;;;8.87;;
17650;SDS011;26663;59.302;18.082;2022-12-18T02:52:12;12.13;;;8.27;;
17650;SDS011;26663;59.302;18.082;2022-12-18T02:55:24;13.97;;;7.93;;
17650;SDS011;26663;59.302;18.082;2022-12-18T02:58:45;13.30;;;8.20;;
17650;SDS011;26663;59.302;18.082;2022-12-18T03:02:10;13.07;;;7.60;;
17650;SDS011;26663;59.302;18.082;2022-12-18T03:05:24;12.90;;;7.87;;
17650;SDS011;26663;59.302;18.082;2022-12-18T03:08:36;10.43;;;7.80;;
17650;SDS011;26663;59.302;18.082;2022-12-18T03:11:44;13.67;;;7.80;;
17650;SDS011;26663;59.302;18.082;2022-12-18T03:15:13;10.13;;;7.30;;
17650;SDS011;26663;59.302;18.082;2022-12-18T03:18:25;9.10;;;6.93;;
17650;SDS011;26663;59.302;18.082;2022-12-18T03:21:40;10.47;;;6.90;;
17650;SDS011;26663;59.302;18.082;2022-12-18T03:24:49;13.33;;;7.67;;
17650;SDS011;26663;59.302;18.082;2022-12-18T03:27:55;9.40;;;7.13;;
17650;SDS011;26663;59.302;18.082;2022-12-18T03:31:04;11.57;;;7.07;;
17650;SDS011;26663;59.302;18.082;2022-12-18T03:34:12;9.97;;;7.27;;
17650;SDS011;26663;59.302;18.082;2022-12-18T03:37:22;12.43;;;7.20;;
17650;SDS011;26663;59.302;18.082;2022-12-18T03:40:29;10.13;;;7.10;;
17650;SDS011;26663;59.302;18.082;2022-12-18T03:43:41;10.87;;;7.23;;
17650;SDS011;26663;59.302;18.082;2022-12-18T03:46:53;10.60;;;7.00;;
17650;SDS011;26663;59.302;18.082;2022-12-18T03:50:03;11.10;;;7.30;;
17650;SDS011;26663;59.302;18.082;2022-12-18T03:53:21;10.17;;;6.70;;
17650;SDS011;26663;59.302;18.082;2022-12-18T03:56:38;9.50;;;7.43;;
17650;SDS011;26663;59.302;18.082;2022-12-18T03:59:48;11.17;;;6.93;;
17650;SDS011;26663;59.302;18.082;2022-12-18T04:02:59;9.67;;;6.80;;
17650;SDS011;26663;59.302;18.082;2022-12-18T04:06:11;8.03;;;6.80;;
17650;SDS011;26663;59.302;18.082;2022-12-18T04:09:18;10.83;;;7.27;;
17650;SDS011;26663;59.302;18.082;2022-12-18T04:12:25;12.27;;;7.10;;
17650;SDS011;26663;59.302;18.082;2022-12-18T04:15:31;9.97;;;7.20;;
17650;SDS011;26663;59.302;18.082;2022-12-18T04:18:40;8.47;;;6.57;;
17650;SDS011;26663;59.302;18.082;2022-12-18T04:21:45;9.33;;;6.97;;
17650;SDS011;26663;59.302;18.082;2022-12-18T04:24:50;10.87;;;6.67;;
17650;SDS011;26663;59.302;18.082;2022-12-18T04:28:04;10.30;;;7.07;;
17650;SDS011;26663;59.302;18.082;2022-12-18T04:31:11;12.13;;;7.60;;
17650;SDS011;26663;59.302;18.082;2022-12-18T04:34:19;13.77;;;7.00;;
17650;SDS011;26663;59.302;18.082;2022-12-18T04:37:27;8.57;;;7.03;;
17650;SDS011;26663;59.302;18.082;2022-12-18T04:40:32;8.93;;;7.27;;
17650;SDS011;26663;59.302;18.082;2022-12-18T04:43:40;9.50;;;6.37;;
17650;SDS011;26663;59.302;18.082;2022-12-18T04:46:45;9.77;;;6.67;;
17650;SDS011;26663;59.302;18.082;2022-12-18T04:49:51;8.00;;;6.40;;
17650;SDS011;26663;59.302;18.082;2022-12-18T04:52:56;11.30;;;7.43;;
17650;SDS011;26663;59.302;18.082;2022-12-18T04:56:02;11.77;;;7.57;;
17650;SDS011;26663;59.302;18.082;2022-12-18T04:59:09;10.13;;;6.93;;
17650;SDS011;26663;59.302;18.082;2022-12-18T05:02:14;10.73;;;6.83;;
17650;SDS011;26663;59.302;18.082;2022-12-18T05:05:21;10.63;;;6.77;;
17650;SDS011;26663;59.302;18.082;2022-12-18T05:08:26;9.63;;;6.80;;
17650;SDS011;26663;59.302;18.082;2022-12-18T05:11:31;10.73;;;7.07;;
17650;SDS011;26663;59.302;18.082;2022-12-18T05:14:36;10.83;;;6.90;;
17650;SDS011;26663;59.302;18.082;2022-12-18T05:17:41;11.53;;;6.97;;
17650;SDS011;26663;59.302;18.082;2022-12-18T05:20:52;10.67;;;7.03;;
17650;SDS011;26663;59.302;18.082;2022-12-18T05:23:57;11.80;;;6.43;;
17650;SDS011;26663;59.302;18.082;2022-12-18T05:27:03;10.77;;;6.60;;
17650;SDS011;26663;59.302;18.082;2022-12-18T05:30:09;12.83;;;6.77;;
17650;SDS011;26663;59.302;18.082;2022-12-18T05:33:15;11.37;;;7.50;;
17650;SDS011;26663;59.302;18.082;2022-12-18T05:36:22;10.30;;;6.07;;
17650;SDS011;26663;59.302;18.082;2022-12-18T05:39:27;10.37;;;6.67;;
17650;SDS011;26663;59.302;18.082;2022-12-18T05:42:33;11.73;;;7.33;;
17650;SDS011;26663;59.302;18.082;2022-12-18T05:45:38;9.80;;;6.43;;
17650;SDS011;26663;59.302;18.082;2022-12-18T05:48:44;9.07;;;6.67;;
17650;SDS011;26663;59.302;18.082;2022-12-18T05:51:50;9.83;;;6.30;;
17650;SDS011;26663;59.302;18.082;2022-12-18T05:54:55;11.63;;;6.67;;
17650;SDS011;26663;59.302;18.082;2022-12-18T05:58:01;11.30;;;5.70;;
17650;SDS011;26663;59.302;18.082;2022-12-18T06:01:07;11.20;;;6.13;;
17650;SDS011;26663;59.302;18.082;2022-12-18T06:04:14;10.17;;;5.80;;
17650;SDS011;26663;59.302;18.082;2022-12-18T06:07:20;8.53;;;6.67;;
17650;SDS011;26663;59.302;18.082;2022-12-18T06:10:25;7.27;;;5.67;;
17650;SDS011;26663;59.302;18.082;2022-12-18T06:13:30;10.53;;;6.57;;
17650;SDS011;26663;59.302;18.082;2022-12-18T06:16:35;10.37;;;6.03;;
17650;SDS011;26663;59.302;18.082;2022-12-18T06:19:40;8.63;;;6.17;;
17650;SDS011;26663;59.302;18.082;2022-12-18T06:22:47;8.37;;;6.33;;
17650;SDS011;26663;59.302;18.082;2022-12-18T06:25:52;8.57;;;5.90;;
17650;SDS011;26663;59.302;18.082;2022-12-18T06:28:57;8.63;;;6.07;;
17650;SDS011;26663;59.302;18.082;2022-12-18T06:32:02;7.73;;;5.77;;
17650;SDS011;26663;59.302;18.082;2022-12-18T06:35:08;10.67;;;6.50;;
17650;SDS011;26663;59.302;18.082;2022-12-18T06:38:14;10.37;;;6.97;;
17650;SDS011;26663;59.302;18.082;2022-12-18T06:41:20;9.40;;;6.87;;
17650;SDS011;26663;59.302;18.082;2022-12-18T06:44:25;11.10;;;6.27;;
17650;SDS011;26663;59.302;18.082;2022-12-18T06:47:30;11.63;;;6.53;;
17650;SDS011;26663;59.302;18.082;2022-12-18T06:50:35;12.37;;;6.33;;
17650;SDS011;26663;59.302;18.082;2022-12-18T06:53:41;9.33;;;6.43;;
17650;SDS011;26663;59.302;18.082;2022-12-18T06:56:46;12.93;;;6.33;;
17650;SDS011;26663;59.302;18.082;2022-12-18T06:59:52;12.23;;;6.87;;
17650;SDS011;26663;59.302;18.082;2022-12-18T07:02:57;9.73;;;6.50;;
17650;SDS011;26663;59.302;18.082;2022-12-18T07:06:02;8.43;;;6.53;;
17650;SDS011;26663;59.302;18.082;2022-12-18T07:09:08;10.93;;;7.43;;
17650;SDS011;26663;59.302;18.082;2022-12-18T07:12:14;11.07;;;7.80;;
17650;SDS011;26663;59.302;18.082;2022-12-18T07:15:18;13.03;;;7.13;;
17650;SDS011;26663;59.302;18.082;2022-12-18T07:18:25;10.23;;;7.03;;
17650;SDS011;26663;59.302;18.082;2022-12-18T07:21:30;11.20;;;6.70;;
17650;SDS011;26663;59.302;18.082;2022-12-18T07:24:36;14.53;;;7.50;;
17650;SDS011;26663;59.302;18.082;2022-12-18T07:27:41;9.93;;;7.03;;
17650;SDS011;26663;59.302;18.082;2022-12-18T07:30:46;12.13;;;7.13;;
17650;SDS011;26663;59.302;18.082;2022-12-18T07:33:51;12.13;;;7.30;;
17650;SDS011;26663;59.302;18.082;2022-12-18T07:36:57;11.13;;;7.10;;
17650;SDS011;26663;59.302;18.082;2022-12-18T07:40:03;13.53;;;7.20;;
17650;SDS011;26663;59.302;18.082;2022-12-18T07:43:11;12.10;;;6.93;;
17650;SDS011;26663;59.302;18.082;2022-12-18T07:46:16;9.83;;;6.63;;
17650;SDS011;26663;59.302;18.082;2022-12-18T07:49:21;10.00;;;6.97;;
17650;SDS011;26663;59.302;18.082;2022-12-18T07:52:26;14.33;;;8.20;;
17650;SDS011;26663;59.302;18.082;2022-12-18T07:55:33;9.50;;;7.73;;
17650;SDS011;26663;59.302;18.082;2022-12-18T07:58:58;12.07;;;7.87;;
17650;SDS011;26663;59.302;18.082;2022-12-18T08:02:03;12.67;;;8.27;;
17650;SDS011;26663;59.302;18.082;2022-12-18T08:05:11;16.77;;;8.27;;
17650;SDS011;26663;59.302;18.082;2022-12-18T08:08:16;13.97;;;8.50;;
17650;SDS011;26663;59.302;18.082;2022-12-18T08:11:23;13.67;;;8.03;;
17650;SDS011;26663;59.302;18.082;2022-12-18T08:14:31;14.03;;;7.93;;
17650;SDS011;26663;59.302;18.082;2022-12-18T08:17:36;13.90;;;7.53;;
17650;SDS011;26663;59.302;18.082;2022-12-18T08:20:41;15.57;;;8.53;;
17650;SDS011;26663;59.302;18.082;2022-12-18T08:23:46;14.50;;;8.17;;
17650;SDS011;26663;59.302;18.082;2022-12-18T08:26:54;12.80;;;8.23;;
17650;SDS011;26663;59.302;18.082;2022-12-18T08:30:19;15.87;;;8.13;;
17650;SDS011;26663;59.302;18.082;2022-12-18T08:33:27;14.37;;;8.83;;
17650;SDS011;26663;59.302;18.082;2022-12-18T08:36:32;13.47;;;8.33;;
17650;SDS011;26663;59.302;18.082;2022-12-18T08:39:37;13.67;;;8.03;;
17650;SDS011;26663;59.302;18.082;2022-12-18T08:42:43;14.37;;;8.33;;
17650;SDS011;26663;59.302;18.082;2022-12-18T08:46:06;16.27;;;8.50;;
17650;SDS011;26663;59.302;18.082;2022-12-18T08:49:12;14.43;;;8.63;;
17650;SDS011;26663;59.302;18.082;2022-12-18T08:52:17;13.03;;;7.60;;
17650;SDS011;26663;59.302;18.082;2022-12-18T08:55:22;13.37;;;8.00;;
17650;SDS011;26663;59.302;18.082;2022-12-18T08:58:29;11.23;;;7.60;;
17650;SDS011;26663;59.302;18.082;2022-12-18T09:01:36;14.13;;;8.30;;
17650;SDS011;26663;59.302;18.082;2022-12-18T09:04:41;13.53;;;8.47;;
17650;SDS011;26663;59.302;18.082;2022-12-18T09:07:48;14.13;;;8.63;;
17650;SDS011;26663;59.302;18.082;2022-12-18T09:10:53;13.27;;;8.30;;
17650;SDS011;26663;59.302;18.082;2022-12-18T09:14:01;12.73;;;7.20;;
17650;SDS011;26663;59.302;18.082;2022-12-18T09:17:06;13.77;;;7.57;;
17650;SDS011;26663;59.302;18.082;2022-12-18T09:20:11;11.60;;;7.97;;
17650;SDS011;26663;59.302;18.082;2022-12-18T09:23:17;12.63;;;8.10;;
17650;SDS011;26663;59.302;18.082;2022-12-18T09:26:23;11.70;;;7.63;;
17650;SDS011;26663;59.302;18.082;2022-12-18T09:29:30;11.17;;;7.63;;
17650;SDS011;26663;59.302;18.082;2022-12-18T09:32:36;16.43;;;8.50;;
17650;SDS011;26663;59.302;18.082;2022-12-18T09:35:41;13.23;;;8.07;;
17650;SDS011;26663;59.302;18.082;2022-12-18T09:38:47;14.73;;;7.47;;
17650;SDS011;26663;59.302;18.082;2022-12-18T09:41:53;13.00;;;7.70;;
17650;SDS011;26663;59.302;18.082;2022-12-18T09:46:28;10.23;;;7.27;;
17650;SDS011;26663;59.302;18.082;2022-12-18T09:49:38;12.07;;;7.27;;
17650;SDS011;26663;59.302;18.082;2022-12-18T09:52:45;10.27;;;7.27;;
17650;SDS011;26663;59.302;18.082;2022-12-18T09:55:53;10.43;;;7.87;;
17650;SDS011;26663;59.302;18.082;2022-12-18T09:59:00;14.47;;;7.90;;
17650;SDS011;26663;59.302;18.082;2022-12-18T10:02:33;11.93;;;7.57;;
17650;SDS011;26663;59.302;18.082;2022-12-18T10:05:42;13.80;;;8.23;;
17650;SDS011;26663;59.302;18.082;2022-12-18T10:08:51;10.07;;;7.43;;
17650;SDS011;26663;59.302;18.082;2022-12-18T10:12:02;13.73;;;7.80;;
17650;SDS011;26663;59.302;18.082;2022-12-18T10:15:13;12.23;;;7.93;;
17650;SDS011;26663;59.302;18.082;2022-12-18T10:18:28;9.73;;;7.17;;
17650;SDS011;26663;59.302;18.082;2022-12-18T10:21:42;11.93;;;7.20;;
17650;SDS011;26663;59.302;18.082;2022-12-18T10:24:53;12.70;;;8.00;;
17650;SDS011;26663;59.302;18.082;2022-12-18T10:28:06;9.07;;;7.53;;
17650;SDS011;26663;59.302;18.082;2022-12-18T10:31:15;9.53;;;7.90;;
17650;SDS011;26663;59.302;18.082;2022-12-18T10:34:25;9.47;;;7.20;;
17650;SDS011;26663;59.302;18.082;2022-12-18T10:37:30;13.80;;;8.67;;
17650;SDS011;26663;59.302;18.082;2022-12-18T10:40:48;12.67;;;8.93;;
17650;SDS011;26663;59.302;18.082;2022-12-18T10:44:11;11.43;;;7.20;;
17650;SDS011;26663;59.302;18.082;2022-12-18T10:47:19;15.90;;;8.30;;
17650;SDS011;26663;59.302;18.082;2022-12-18T10:50:28;10.03;;;7.20;;
17650;SDS011;26663;59.302;18.082;2022-12-18T10:53:54;13.37;;;7.93;;
17650;SDS011;26663;59.302;18.082;2022-12-18T10:57:13;13.27;;;8.00;;
17650;SDS011;26663;59.302;18.082;2022-12-18T11:00:24;12.70;;;7.93;;
17650;SDS011;26663;59.302;18.082;2022-12-18T11:03:31;16.17;;;8.87;;
17650;SDS011;26663;59.302;18.082;2022-12-18T11:06:51;10.67;;;7.07;;
17650;SDS011;26663;59.302;18.082;2022-12-18T11:09:59;12.73;;;7.93;;
17650;SDS011;26663;59.302;18.082;2022-12-18T11:13:11;9.60;;;7.50;;
17650;SDS011;26663;59.302;18.082;2022-12-18T11:16:19;12.40;;;7.73;;
17650;SDS011;26663;59.302;18.082;2022-12-18T11:19:30;10.50;;;7.50;;
17650;SDS011;26663;59.302;18.082;2022-12-18T11:22:38;9.20;;;6.73;;
17650;SDS011;26663;59.302;18.082;2022-12-18T11:25:50;12.13;;;7.23;;
17650;SDS011;26663;59.302;18.082;2022-12-18T11:29:07;9.97;;;7.47;;
17650;SDS011;26663;59.302;18.082;2022-12-18T11:32:33;11.33;;;7.67;;
17650;SDS011;26663;59.302;18.082;2022-12-18T11:35:40;10.20;;;7.30;;
17650;SDS011;26663;59.302;18.082;2022-12-18T11:38:49;9.90;;;6.83;;
17650;SDS011;26663;59.302;18.082;2022-12-18T11:41:59;12.57;;;7.57;;
17650;SDS011;26663;59.302;18.082;2022-12-18T11:45:28;10.43;;;6.93;;
17650;SDS011;26663;59.302;18.082;2022-12-18T11:48:36;10.07;;;7.10;;
17650;SDS011;26663;59.302;18.082;2022-12-18T11:51:48;8.80;;;6.50;;
17650;SDS011;26663;59.302;18.082;2022-12-18T11:55:00;11.23;;;7.20;;
17650;SDS011;26663;59.302;18.082;2022-12-18T11:58:12;11.07;;;7.17;;
17650;SDS011;26663;59.302;18.082;2022-12-18T12:01:36;10.30;;;6.73;;
17650;SDS011;26663;59.302;18.082;2022-12-18T12:08:24;10.90;;;6.93;;
17650;SDS011;26663;59.302;18.082;2022-12-18T12:11:39;8.97;;;6.83;;
17650;SDS011;26663;59.302;18.082;2022-12-18T12:14:53;9.20;;;6.73;;
17650;SDS011;26663;59.302;18.082;2022-12-18T12:18:06;9.27;;;7.07;;
17650;SDS011;26663;59.302;18.082;2022-12-18T12:21:20;10.87;;;6.33;;
17650;SDS011;26663;59.302;18.082;2022-12-18T12:24:33;10.43;;;6.37;;
17650;SDS011;26663;59.302;18.082;2022-12-18T12:27:46;16.53;;;6.03;;
17650;SDS011;26663;59.302;18.082;2022-12-18T12:30:55;14.30;;;7.30;;
17650;SDS011;26663;59.302;18.082;2022-12-18T12:34:11;9.43;;;6.80;;
17650;SDS011;26663;59.302;18.082;2022-12-18T12:37:24;13.70;;;6.67;;
17650;SDS011;26663;59.302;18.082;2022-12-18T12:40:34;9.63;;;6.67;;
17650;SDS011;26663;59.302;18.082;2022-12-18T12:43:57;8.80;;;6.30;;
17650;SDS011;26663;59.302;18.082;2022-12-18T12:47:07;7.67;;;5.83;;
17650;SDS011;26663;59.302;18.082;2022-12-18T12:50:17;12.60;;;6.70;;
17650;SDS011;26663;59.302;18.082;2022-12-18T12:53:25;8.27;;;6.93;;
17650;SDS011;26663;59.302;18.082;2022-12-18T12:56:36;9.50;;;6.57;;
17650;SDS011;26663;59.302;18.082;2022-12-18T12:59:49;12.30;;;7.27;;
17650;SDS011;26663;59.302;18.082;2022-12-18T13:02:59;9.40;;;5.90;;
17650;SDS011;26663;59.302;18.082;2022-12-18T13:06:12;11.20;;;6.57;;
17650;SDS011;26663;59.302;18.082;2022-12-18T13:09:20;9.83;;;6.37;;
17650;SDS011;26663;59.302;18.082;2022-12-18T13:12:26;9.40;;;6.40;;
17650;SDS011;26663;59.302;18.082;2022-12-18T13:16:05;11.67;;;5.83;;
17650;SDS011;26663;59.302;18.082;2022-12-18T13:19:19;8.27;;;6.10;;
17650;SDS011;26663;59.302;18.082;2022-12-18T13:22:28;8.80;;;6.07;;
17650;SDS011;26663;59.302;18.082;2022-12-18T13:25:36;8.40;;;5.90;;
17650;SDS011;26663;59.302;18.082;2022-12-18T13:28:52;5.97;;;4.70;;
17650;SDS011;26663;59.302;18.082;2022-12-18T13:32:00;5.90;;;5.37;;
17650;SDS011;26663;59.302;18.082;2022-12-18T13:38:44;10.43;;;5.80;;
17650;SDS011;26663;59.302;18.082;2022-12-18T13:41:51;9.60;;;5.83;;
17650;SDS011;26663;59.302;18.082;2022-12-18T13:44:57;8.50;;;4.93;;
17650;SDS011;26663;59.302;18.082;2022-12-18T13:48:04;7.60;;;5.33;;
17650;SDS011;26663;59.302;18.082;2022-12-18T13:51:16;7.27;;;5.07;;
17650;SDS011;26663;59.302;18.082;2022-12-18T13:54:24;9.43;;;5.17;;
17650;SDS011;26663;59.302;18.082;2022-12-18T13:57:33;7.67;;;5.37;;
17650;SDS011;26663;59.302;18.082;2022-12-18T14:00:41;6.00;;;5.40;;
17650;SDS011;26663;59.302;18.082;2022-12-18T14:03:49;7.27;;;5.60;;
17650;SDS011;26663;59.302;18.082;2022-12-18T14:06:56;11.57;;;5.43;;
17650;SDS011;26663;59.302;18.082;2022-12-18T14:10:03;5.57;;;4.70;;
17650;SDS011;26663;59.302;18.082;2022-12-18T14:13:35;6.60;;;4.97;;
17650;SDS011;26663;59.302;18.082;2022-12-18T14:16:41;5.80;;;4.80;;
17650;SDS011;26663;59.302;18.082;2022-12-18T14:19:51;5.30;;;4.80;;
17650;SDS011;26663;59.302;18.082;2022-12-18T14:22:56;6.30;;;4.77;;
17650;SDS011;26663;59.302;18.082;2022-12-18T14:26:17;8.27;;;5.10;;
17650;SDS011;26663;59.302;18.082;2022-12-18T14:29:25;6.03;;;4.90;;
17650;SDS011;26663;59.302;18.082;2022-12-18T14:32:32;11.53;;;4.80;;
17650;SDS011;26663;59.302;18.082;2022-12-18T14:35:39;7.87;;;4.90;;
17650;SDS011;26663;59.302;18.082;2022-12-18T14:38:47;8.30;;;4.47;;
17650;SDS011;26663;59.302;18.082;2022-12-18T14:41:53;10.60;;;4.90;;
17650;SDS011;26663;59.302;18.082;2022-12-18T14:48:43;5.00;;;4.50;;
17650;SDS011;26663;59.302;18.082;2022-12-18T14:51:53;9.27;;;4.60;;
17650;SDS011;26663;59.302;18.082;2022-12-18T14:55:01;4.37;;;3.97;;
17650;SDS011;26663;59.302;18.082;2022-12-18T14:58:10;5.00;;;4.47;;
17650;SDS011;26663;59.302;18.082;2022-12-18T15:01:22;7.90;;;4.37;;
17650;SDS011;26663;59.302;18.082;2022-12-18T15:04:33;5.37;;;4.57;;
17650;SDS011;26663;59.302;18.082;2022-12-18T15:07:41;4.53;;;4.10;;
17650;SDS011;26663;59.302;18.082;2022-12-18T15:10:48;9.00;;;4.63;;
17650;SDS011;26663;59.302;18.082;2022-12-18T15:13:53;8.43;;;3.90;;
17650;SDS011;26663;59.302;18.082;2022-12-18T15:17:03;7.00;;;4.10;;
17650;SDS011;26663;59.302;18.082;2022-12-18T15:20:10;6.27;;;3.93;;
17650;SDS011;26663;59.302;18.082;2022-12-18T15:23:18;5.87;;;3.80;;
17650;SDS011;26663;59.302;18.082;2022-12-18T15:26:24;7.90;;;4.07;;
17650;SDS011;26663;59.302;18.082;2022-12-18T15:29:29;4.70;;;3.30;;
17650;SDS011;26663;59.302;18.082;2022-12-18T15:32:38;3.47;;;3.10;;
17650;SDS011;26663;59.302;18.082;2022-12-18T15:35:55;4.13;;;3.73;;
17650;SDS011;26663;59.302;18.082;2022-12-18T15:39:02;4.70;;;3.30;;
17650;SDS011;26663;59.302;18.082;2022-12-18T15:42:11;5.90;;;3.10;;
17650;SDS011;26663;59.302;18.082;2022-12-18T15:45:33;4.90;;;2.80;;
17650;SDS011;26663;59.302;18.082;2022-12-18T15:48:39;9.37;;;3.57;;
17650;SDS011;26663;59.302;18.082;2022-12-18T15:51:45;8.43;;;3.60;;
17650;SDS011;26663;59.302;18.082;2022-12-18T15:54:55;5.43;;;3.00;;
17650;SDS011;26663;59.302;18.082;2022-12-18T15:58:17;2.77;;;2.57;;
17650;SDS011;26663;59.302;18.082;2022-12-18T16:01:25;2.90;;;2.70;;
17650;SDS011;26663;59.302;18.082;2022-12-18T16:04:32;3.37;;;2.80;;
17650;SDS011;26663;59.302;18.082;2022-12-18T16:08:01;3.33;;;2.63;;
17650;SDS011;26663;59.302;18.082;2022-12-18T16:11:10;4.67;;;2.23;;
17650;SDS011;26663;59.302;18.082;2022-12-18T16:14:40;6.53;;;2.90;;
17650;SDS011;26663;59.302;18.082;2022-12-18T16:17:45;4.40;;;2.47;;
17650;SDS011;26663;59.302;18.082;2022-12-18T16:20:52;2.73;;;2.50;;
17650;SDS011;26663;59.302;18.082;2022-12-18T16:23:57;4.63;;;2.70;;
17650;SDS011;26663;59.302;18.082;2022-12-18T16:27:03;2.67;;;2.47;;
17650;SDS011;26663;59.302;18.082;2022-12-18T16:30:11;7.40;;;2.40;;
17650;SDS011;26663;59.302;18.082;2022-12-18T16:33:20;2.67;;;2.47;;
17650;SDS011;26663;59.302;18.082;2022-12-18T16:36:25;4.43;;;2.73;;
17650;SDS011;26663;59.302;18.082;2022-12-18T16:39:30;4.30;;;2.40;;
17650;SDS011;26663;59.302;18.082;2022-12-18T16:42:38;3.03;;;2.40;;
17650;SDS011;26663;59.302;18.082;2022-12-18T16:45:45;4.00;;;2.20;;
17650;SDS011;26663;59.302;18.082;2022-12-18T16:48:51;4.53;;;2.40;;
17650;SDS011;26663;59.302;18.082;2022-12-18T16:52:00;6.90;;;2.73;;
17650;SDS011;26663;59.302;18.082;2022-12-18T16:55:05;2.57;;;2.13;;
17650;SDS011;26663;59.302;18.082;2022-12-18T16:58:13;6.90;;;1.90;;
17650;SDS011;26663;59.302;18.082;2022-12-18T17:01:18;5.73;;;2.20;;
17650;SDS011;26663;59.302;18.082;2022-12-18T17:04:24;5.27;;;1.90;;
17650;SDS011;26663;59.302;18.082;2022-12-18T17:07:30;7.67;;;2.23;;
17650;SDS011;26663;59.302;18.082;2022-12-18T17:10:36;3.77;;;1.77;;
17650;SDS011;26663;59.302;18.082;2022-12-18T17:13:43;4.10;;;2.03;;
17650;SDS011;26663;59.302;18.082;2022-12-18T17:16:48;2.03;;;1.83;;
17650;SDS011;26663;59.302;18.082;2022-12-18T17:20:13;9.37;;;2.40;;
17650;SDS011;26663;59.302;18.082;2022-12-18T17:23:19;6.83;;;2.20;;
17650;SDS011;26663;59.302;18.082;2022-12-18T17:26:26;5.93;;;2.50;;
17650;SDS011;26663;59.302;18.082;2022-12-18T17:29:41;5.30;;;2.50;;
17650;SDS011;26663;59.302;18.082;2022-12-18T17:32:50;4.37;;;2.13;;
17650;SDS011;26663;59.302;18.082;2022-12-18T17:35:57;2.93;;;2.30;;
17650;SDS011;26663;59.302;18.082;2022-12-18T17:39:03;3.70;;;2.17;;
17650;SDS011;26663;59.302;18.082;2022-12-18T17:42:08;4.63;;;2.10;;
17650;SDS011;26663;59.302;18.082;2022-12-18T17:45:18;6.40;;;1.93;;
17650;SDS011;26663;59.302;18.082;2022-12-18T17:48:24;3.20;;;2.03;;
17650;SDS011;26663;59.302;18.082;2022-12-18T17:51:31;3.60;;;2.07;;
17650;SDS011;26663;59.302;18.082;2022-12-18T17:54:37;5.80;;;2.27;;
17650;SDS011;26663;59.302;18.082;2022-12-18T17:57:44;3.10;;;2.00;;
17650;SDS011;26663;59.302;18.082;2022-12-18T18:00:50;4.57;;;2.07;;
17650;SDS011;26663;59.302;18.082;2022-12-18T18:03:56;6.07;;;1.93;;
17650;SDS011;26663;59.302;18.082;2022-12-18T18:07:04;5.83;;;2.70;;
17650;SDS011;26663;59.302;18.082;2022-12-18T18:10:11;2.27;;;1.97;;
17650;SDS011;26663;59.302;18.082;2022-12-18T18:13:20;3.83;;;2.13;;
17650;SDS011;26663;59.302;18.082;2022-12-18T18:16:50;4.17;;;2.00;;
17650;SDS011;26663;59.302;18.082;2022-12-18T18:19:56;3.07;;;2.23;;
17650;SDS011;26663;59.302;18.082;2022-12-18T18:23:03;5.03;;;1.97;;
17650;SDS011;26663;59.302;18.082;2022-12-18T18:26:09;3.97;;;2.40;;
17650;SDS011;26663;59.302;18.082;2022-12-18T18:29:14;6.10;;;2.20;;
17650;SDS011;26663;59.302;18.082;2022-12-18T18:32:39;7.73;;;2.23;;
17650;SDS011;26663;59.302;18.082;2022-12-18T18:35:44;4.83;;;2.50;;
17650;SDS011;26663;59.302;18.082;2022-12-18T18:38:57;4.87;;;2.17;;
17650;SDS011;26663;59.302;18.082;2022-12-18T18:42:05;4.23;;;2.07;;
17650;SDS011;26663;59.302;18.082;2022-12-18T18:45:10;2.43;;;2.03;;